Time;durP1;ratioP1;P1;durP2;ratioP2;P2;SDS_P1;SDS_P2;PMS_P1;PMS_P2;Temp;Humidity;BMP_temperature;BMP_pressure;BME280_temperature;BME280_humidity;BME280_pressure;Samples;Min_cycle;Max_cycle;Signal;HPM_P1;HPM_P2
2021/01/15 00:01:37;;;;;;;20.10;11.93;;;0.30;2201.60;;;;;;4981401;28;20057;-76
2021/01/15 00:04:04;;;;;;;21.47;13.73;;;0.30;2201.60;;;;;;5001627;28;20057;-75
2021/01/15 00:06:30;;;;;;;23.37;14.23;;;0.20;2201.60;;;;;;5000951;28;20058;-76
2021/01/15 00:08:56;;;;;;;20.63;13.83;;;0.30;2201.60;;;;;;5013958;28;20021;-76
2021/01/15 00:11:28;;;;;;;21.50;13.23;;;0.30;2201.60;;;;;;4987326;28;20030;-75
2021/01/15 00:13:54;;;;;;;19.50;12.87;;;0.30;2201.60;;;;;;5011449;28;20022;-75
2021/01/15 00:16:27;;;;;;;19.80;12.93;;;0.30;2201.60;;;;;;4991930;28;20064;-74
2021/01/15 00:18:54;;;;;;;18.60;11.83;;;0.30;2201.60;;;;;;5002201;28;20026;-74
2021/01/15 00:21:20;;;;;;;20.23;12.47;;;0.30;2201.60;;;;;;4990314;28;20390;-74
2021/01/15 00:23:46;;;;;;;18.53;11.87;;;0.30;2201.60;;;;;;5007600;28;20034;-75
2021/01/15 00:26:34;;;;;;;20.23;11.73;;;0.30;2201.60;;;;;;5006393;28;20053;-74
2021/01/15 00:29:00;;;;;;;17.27;11.07;;;0.30;2201.60;;;;;;5000003;28;20105;-75
2021/01/15 00:31:34;;;;;;;22.07;12.10;;;0.30;2201.60;;;;;;5005320;28;20026;-75
2021/01/15 00:33:59;;;;;;;18.63;11.05;;;0.30;2201.60;;;;;;4994233;28;20157;-74
2021/01/15 00:36:26;;;;;;;16.27;10.50;;;0.20;2201.60;;;;;;5008032;28;20030;-75
2021/01/15 00:38:51;;;;;;;14.70;10.80;;;0.20;2201.60;;;;;;5007961;28;20033;-75
2021/01/15 00:41:17;;;;;;;16.77;11.23;;;0.20;2201.60;;;;;;5015195;28;20022;-77
2021/01/15 00:43:43;;;;;;;17.90;11.27;;;0.10;2201.60;;;;;;5013655;28;20391;-74
2021/01/15 00:46:31;;;;;;;20.47;10.87;;;0.20;2201.60;;;;;;5007940;28;20046;-74
2021/01/15 00:49:08;;;;;;;17.47;10.53;;;0.20;2201.60;;;;;;4995785;28;20505;-74
2021/01/15 00:51:37;;;;;;;16.90;10.53;;;0.20;2201.60;;;;;;5015212;28;20022;-79
2021/01/15 00:54:04;;;;;;;17.37;11.03;;;0.20;2201.60;;;;;;4993728;28;20119;-76
2021/01/15 00:56:30;;;;;;;18.60;11.33;;;0.20;2201.60;;;;;;5002193;28;20022;-75
2021/01/15 00:58:56;;;;;;;18.70;11.13;;;0.20;2201.60;;;;;;5004729;28;20026;-76
2021/01/15 01:01:23;;;;;;;19.63;11.17;;;0.20;2201.60;;;;;;5010543;28;20041;-76
2021/01/15 01:03:51;;;;;;;23.47;12.77;;;0.20;2201.60;;;;;;5015955;28;20024;-74
2021/01/15 01:06:19;;;;;;;26.73;14.13;;;0.20;2201.60;;;;;;5009792;28;20363;-75
2021/01/15 01:08:45;;;;;;;23.17;13.40;;;0.20;2201.60;;;;;;5016859;28;20130;-78
2021/01/15 01:11:13;;;;;;;20.63;11.93;;;0.20;2201.60;;;;;;4997565;28;20382;-75
2021/01/15 01:13:40;;;;;;;17.07;10.87;;;0.20;2201.60;;;;;;5008383;28;20022;-76
2021/01/15 01:16:06;;;;;;;19.57;10.77;;;0.20;2201.60;;;;;;5006465;28;20097;-76
2021/01/15 01:18:36;;;;;;;15.70;10.30;;;0.20;2201.60;;;;;;4994056;28;20027;-73
2021/01/15 01:21:03;;;;;;;19.10;10.77;;;0.20;2201.60;;;;;;4992379;28;20046;-78
2021/01/15 01:23:29;;;;;;;18.37;10.10;;;0.20;2201.60;;;;;;4997389;28;20114;-75
2021/01/15 01:25:54;;;;;;;19.43;10.17;;;0.20;2201.60;;;;;;4978231;28;20475;-77
2021/01/15 01:28:20;;;;;;;16.67;10.10;;;0.20;2201.60;;;;;;5011536;28;20038;-73
2021/01/15 01:30:47;;;;;;;15.77;9.47;;;0.20;2201.60;;;;;;4997991;28;20525;-72
2021/01/15 01:33:13;;;;;;;17.30;9.57;;;0.20;2201.60;;;;;;4997019;28;20442;-73
2021/01/15 01:35:39;;;;;;;15.47;8.80;;;0.20;2201.60;;;;;;5001812;28;20060;-74
2021/01/15 01:38:05;;;;;;;18.67;10.73;;;0.20;2201.60;;;;;;4976744;28;20023;-73
2021/01/15 01:40:30;;;;;;;17.97;10.13;;;0.20;2201.60;;;;;;4997134;28;20034;-72
2021/01/15 01:42:56;;;;;;;16.67;9.97;;;0.20;2201.60;;;;;;4997219;28;20456;-74
2021/01/15 01:45:22;;;;;;;18.07;11.07;;;0.20;2201.60;;;;;;4980124;28;20534;-72
2021/01/15 01:47:48;;;;;;;18.63;11.00;;;0.20;2201.60;;;;;;5002215;28;20085;-72
2021/01/15 01:50:15;;;;;;;27.13;14.37;;;0.20;2201.60;;;;;;4985795;28;20026;-76
2021/01/15 01:52:41;;;;;;;24.43;13.87;;;0.20;2201.60;;;;;;5000079;28;20033;-74
2021/01/15 01:55:07;;;;;;;23.97;12.57;;;0.10;2201.60;;;;;;4996460;28;20068;-77
2021/01/15 01:57:34;;;;;;;18.77;11.57;;;0.10;2201.60;;;;;;4994213;28;20084;-74
2021/01/15 02:00:00;;;;;;;17.23;10.07;;;0.10;2201.60;;;;;;4994087;28;20034;-76
2021/01/15 02:02:27;;;;;;;16.73;10.00;;;0.10;2201.60;;;;;;4976740;28;20419;-75
2021/01/15 02:04:53;;;;;;;19.20;10.27;;;0.10;2201.60;;;;;;4994095;28;20026;-74
2021/01/15 02:07:19;;;;;;;15.13;9.63;;;0.10;2201.60;;;;;;4994005;28;20411;-77
2021/01/15 02:10:10;;;;;;;17.27;10.07;;;0.00;2201.60;;;;;;4994179;28;20018;-76
2021/01/15 02:12:47;;;;;;;18.30;10.33;;;0.00;2201.60;;;;;;4994184;28;20058;-74
2021/01/15 02:15:21;;;;;;;18.77;10.10;;;0.00;2201.60;;;;;;4994244;28;20391;-76
2021/01/15 02:18:09;;;;;;;12.98;8.85;;;0.00;2201.60;;;;;;4994344;28;20025;-76
2021/01/15 02:20:47;;;;;;;16.07;9.50;;;0.00;2201.60;;;;;;4939543;28;20088;-74
2021/01/15 02:23:44;;;;;;;15.37;9.43;;;0.00;2201.60;;;;;;4994053;28;20030;-75
2021/01/15 02:26:49;;;;;;;12.20;8.97;;;0.00;2201.60;;;;;;4993532;28;20057;-76
2021/01/15 02:29:28;;;;;;;15.35;8.88;;;0.00;2201.60;;;;;;4915637;29;20032;-75
2021/01/15 02:32:08;;;;;;;16.37;10.13;;;0.00;2201.60;;;;;;4915320;29;20040;-74
2021/01/15 02:34:52;;;;;;;16.13;9.77;;;12.90;2201.60;;;;;;4950438;28;20047;-74
2021/01/15 02:37:33;;;;;;;16.13;10.00;;;12.90;2201.60;;;;;;4977061;28;20034;-76
2021/01/15 02:40:17;;;;;;;17.37;10.77;;;12.90;2201.60;;;;;;4976694;28;20057;-76
2021/01/15 02:42:45;;;;;;;13.30;8.20;;;12.90;2201.60;;;;;;4994124;28;20062;-74
2021/01/15 02:45:13;;;;;;;15.17;8.97;;;12.90;2201.60;;;;;;4976681;28;20435;-74
2021/01/15 02:47:52;;;;;;;15.60;9.40;;;12.90;2201.60;;;;;;4976898;28;20450;-76
2021/01/15 02:50:25;;;;;;;14.63;8.27;;;0.00;2201.60;;;;;;4976978;28;20602;-76
2021/01/15 02:52:53;;;;;;;;;;;12.90;2201.60;;;;;;4977100;28;20034;-76
2021/01/15 02:55:20;;;;;;;17.40;9.23;;;12.90;2201.60;;;;;;4994294;28;19905;-76
2021/01/15 02:57:46;;;;;;;17.00;9.83;;;12.90;2201.60;;;;;;4977026;28;20035;-76
2021/01/15 03:00:20;;;;;;;28.33;14.40;;;13.00;2201.60;;;;;;4994972;28;20034;-75
2021/01/15 03:02:48;;;;;;;22.73;12.47;;;13.00;2201.60;;;;;;4994514;28;20379;-77
2021/01/15 03:05:21;;;;;;;20.03;11.70;;;13.00;2201.60;;;;;;4976584;28;20065;-75
2021/01/15 03:07:50;;;;;;;21.17;12.63;;;12.90;2201.60;;;;;;4996023;28;20039;-78
2021/01/15 03:10:20;;;;;;;16.40;10.30;;;13.00;2201.60;;;;;;4980460;28;20058;-77
2021/01/15 03:12:48;;;;;;;16.33;8.97;;;13.00;2201.60;;;;;;4979949;28;20064;-76
2021/01/15 03:15:16;;;;;;;17.93;9.40;;;12.90;2201.60;;;;;;4980113;28;20026;-76
2021/01/15 03:17:45;;;;;;;17.57;10.60;;;13.00;2201.60;;;;;;4997362;28;20349;-73
2021/01/15 03:20:12;;;;;;;17.83;11.07;;;13.00;2201.60;;;;;;4979641;28;20026;-76
2021/01/15 03:22:47;;;;;;;17.70;11.37;;;12.90;2201.60;;;;;;4979372;28;20506;-74
2021/01/15 03:25:14;;;;;;;19.93;12.00;;;13.00;2201.60;;;;;;4975818;28;20451;-74
2021/01/15 03:27:46;;;;;;;24.17;10.97;;;13.00;2201.60;;;;;;4977163;28;20039;-76
2021/01/15 03:30:18;;;;;;;18.33;9.83;;;13.00;2201.60;;;;;;4977388;28;20031;-74
2021/01/15 03:32:46;;;;;;;19.23;10.47;;;13.00;2201.60;;;;;;4977267;28;20073;-74
2021/01/15 03:35:24;;;;;;;16.07;9.50;;;13.00;2201.60;;;;;;4977040;28;20124;-76
2021/01/15 03:38:08;;;;;;;16.37;10.13;;;13.00;2201.60;;;;;;4976088;28;20059;-73
2021/01/15 03:40:45;;;;;;;19.52;11.20;;;13.00;2201.60;;;;;;4977165;28;20026;-74
2021/01/15 03:43:12;;;;;;;21.00;10.67;;;13.00;2201.60;;;;;;4975966;28;20042;-74
2021/01/15 03:45:38;;;;;;;22.13;10.27;;;13.00;2201.60;;;;;;4977082;28;20030;-76
2021/01/15 03:48:05;;;;;;;18.37;9.53;;;13.00;2201.60;;;;;;4976992;28;20041;-74
2021/01/15 03:50:31;;;;;;;18.07;10.27;;;13.00;2201.60;;;;;;4976988;28;20114;-73
2021/01/15 03:52:57;;;;;;;16.57;9.73;;;13.00;2201.60;;;;;;4976825;28;20460;-76
2021/01/15 03:55:23;;;;;;;16.10;10.17;;;13.10;2201.60;;;;;;4975390;28;20027;-76
2021/01/15 03:57:49;;;;;;;17.77;10.37;;;13.10;2201.60;;;;;;4975499;28;20113;-76
2021/01/15 04:00:15;;;;;;;23.17;12.97;;;13.10;2201.60;;;;;;4976644;28;20023;-73
2021/01/15 04:02:41;;;;;;;21.67;13.50;;;13.10;2201.60;;;;;;4975460;28;20037;-75
2021/01/15 04:05:11;;;;;;;25.20;14.63;;;13.10;2201.60;;;;;;4976538;28;20018;-74
2021/01/15 04:07:38;;;;;;;22.67;13.53;;;13.10;2201.60;;;;;;4976453;28;20034;-76
2021/01/15 04:10:05;;;;;;;24.83;13.97;;;13.10;2201.60;;;;;;4976574;28;20029;-76
2021/01/15 04:12:31;;;;;;;27.13;15.47;;;13.10;2201.60;;;;;;4975175;28;20078;-76
2021/01/15 04:14:56;;;;;;;20.47;13.13;;;13.10;2201.60;;;;;;4976396;28;20031;-76
2021/01/15 04:17:23;;;;;;;20.43;12.73;;;13.10;2201.60;;;;;;4976333;28;20031;-76
2021/01/15 04:19:49;;;;;;;18.60;11.80;;;13.10;2201.60;;;;;;4976359;28;20027;-76
2021/01/15 04:22:15;;;;;;;18.30;11.13;;;13.20;2201.60;;;;;;4974994;28;20118;-75
2021/01/15 04:24:41;;;;;;;18.10;11.13;;;13.20;2201.60;;;;;;4974693;28;20106;-76
2021/01/15 04:27:07;;;;;;;23.40;14.87;;;13.20;2201.60;;;;;;4976145;28;20035;-76
2021/01/15 04:29:33;;;;;;;25.87;14.70;;;13.20;2201.60;;;;;;4974774;28;20023;-74
2021/01/15 04:31:59;;;;;;;17.53;11.17;;;13.20;2201.60;;;;;;4976003;28;20031;-76
2021/01/15 04:34:24;;;;;;;17.80;10.83;;;13.20;2201.60;;;;;;4975989;28;20057;-76
2021/01/15 04:36:50;;;;;;;18.20;11.00;;;13.20;2201.60;;;;;;4975926;28;20081;-76
2021/01/15 04:39:18;;;;;;;15.80;9.93;;;13.20;2201.60;;;;;;4972383;28;20839;-76
2021/01/15 04:41:47;;;;;;;21.83;12.53;;;13.20;2201.60;;;;;;4955352;29;20016;-74
2021/01/15 04:44:13;;;;;;;17.83;10.60;;;13.20;2201.60;;;;;;4955522;29;20058;-74
2021/01/15 04:46:42;;;;;;;16.40;11.13;;;13.20;2201.60;;;;;;4956308;29;20494;-73
2021/01/15 04:49:20;;;;;;;18.97;10.47;;;13.20;2201.60;;;;;;4954679;29;20058;-74
2021/01/15 04:51:51;;;;;;;17.53;11.20;;;13.20;2201.60;;;;;;4955433;29;20030;-74
2021/01/15 04:54:23;;;;;;;19.73;11.93;;;13.20;2201.60;;;;;;4955016;29;20082;-75
2021/01/15 04:56:55;;;;;;;21.43;12.53;;;13.20;2201.60;;;;;;4954997;29;20078;-75
2021/01/15 04:59:22;;;;;;;20.93;11.10;;;13.20;2201.60;;;;;;4956197;29;20086;-74
2021/01/15 05:01:50;;;;;;;17.70;10.80;;;13.20;2201.60;;;;;;4956104;29;20487;-75
2021/01/15 05:04:17;;;;;;;17.83;11.03;;;13.20;2201.60;;;;;;4956071;29;20035;-76
2021/01/15 05:06:47;;;;;;;19.43;11.50;;;13.20;2201.60;;;;;;4955906;29;20102;-75
2021/01/15 05:09:16;;;;;;;22.37;13.20;;;13.20;2201.60;;;;;;4954805;29;20047;-75
2021/01/15 05:11:43;;;;;;;30.83;15.03;;;13.20;2201.60;;;;;;4956006;29;20472;-76
2021/01/15 05:14:11;;;;;;;30.60;15.33;;;13.20;2201.60;;;;;;4955975;29;20034;-75
2021/01/15 05:16:39;;;;;;;27.40;14.70;;;13.20;2201.60;;;;;;4956100;29;20040;-75
2021/01/15 05:19:06;;;;;;;24.60;14.30;;;13.30;2201.60;;;;;;4954606;29;20113;-76
2021/01/15 05:21:34;;;;;;;28.90;14.73;;;13.30;2201.60;;;;;;4955845;29;20125;-75
2021/01/15 05:24:00;;;;;;;27.50;14.63;;;13.30;2201.60;;;;;;4958622;28;20043;-76
2021/01/15 05:26:27;;;;;;;23.73;12.97;;;13.20;2201.60;;;;;;4973809;28;20118;-73
2021/01/15 05:28:53;;;;;;;23.37;14.00;;;13.30;2201.60;;;;;;4975097;28;20035;-74
2021/01/15 05:31:21;;;;;;;25.67;14.70;;;13.30;2201.60;;;;;;4974588;28;20023;-75
2021/01/15 05:34:07;;;;;;;24.87;14.70;;;13.30;2201.60;;;;;;4973686;28;20121;-74
2021/01/15 05:36:35;;;;;;;20.30;12.67;;;13.30;2201.60;;;;;;4973777;28;20031;-74
2021/01/15 05:39:33;;;;;;;26.00;14.97;;;13.30;2201.60;;;;;;4974974;28;20030;-74
2021/01/15 05:42:01;;;;;;;22.37;14.13;;;13.30;2201.60;;;;;;4934378;29;20491;-76
2021/01/15 05:44:28;;;;;;;25.57;15.43;;;13.30;2201.60;;;;;;4918436;29;20036;-74
2021/01/15 05:46:55;;;;;;;21.43;12.77;;;13.30;2201.60;;;;;;4934355;29;20040;-77
2021/01/15 05:49:21;;;;;;;20.33;11.63;;;13.40;2201.60;;;;;;4934366;29;20036;-76
2021/01/15 05:51:47;;;;;;;30.57;14.27;;;13.40;2201.60;;;;;;4934436;29;20086;-75
2021/01/15 05:54:31;;;;;;;26.77;15.53;;;13.40;2201.60;;;;;;4934613;29;20129;-74
2021/01/15 05:56:58;;;;;;;30.03;14.83;;;13.40;2201.60;;;;;;4934274;29;20023;-76
2021/01/15 05:59:25;;;;;;;29.83;16.17;;;13.40;2201.60;;;;;;4918538;29;20027;-76
2021/01/15 06:01:52;;;;;;;34.40;19.97;;;13.40;2201.60;;;;;;4934250;29;20429;-75
2021/01/15 06:04:38;;;;;;;26.50;15.10;;;13.40;2201.60;;;;;;4918099;29;20130;-76
2021/01/15 06:07:10;;;;;;;34.87;18.77;;;13.40;2201.60;;;;;;4933850;29;20047;-74
2021/01/15 06:09:37;;;;;;;26.07;15.13;;;13.20;2201.60;;;;;;4934187;29;20057;-76
2021/01/15 06:12:05;;;;;;;26.27;15.17;;;13.40;2201.60;;;;;;4934126;29;20036;-74
2021/01/15 06:14:31;;;;;;;30.73;17.63;;;13.40;2201.60;;;;;;4934054;29;20039;-76
2021/01/15 06:17:09;;;;;;;47.53;27.53;;;13.40;2201.60;;;;;;4944627;28;20114;-76
2021/01/15 06:19:47;;;;;;;116.03;54.37;;;13.40;2201.60;;;;;;4974569;28;20518;-75
2021/01/15 06:22:44;;;;;;;264.23;78.83;;;13.40;2201.60;;;;;;4973290;28;20046;-74
2021/01/15 06:25:31;;;;;;;40.73;21.80;;;13.40;2201.60;;;;;;4972984;28;20089;-76
2021/01/15 06:28:04;;;;;;;34.17;18.90;;;13.40;2201.60;;;;;;4974613;28;20041;-75
2021/01/15 06:30:35;;;;;;;29.38;16.17;;;13.40;2201.60;;;;;;4973226;28;20033;-76
2021/01/15 06:33:15;;;;;;;28.03;16.17;;;13.30;2201.60;;;;;;4974446;28;20387;-75
2021/01/15 06:35:43;;;;;;;38.97;22.53;;;13.30;2201.60;;;;;;4974348;28;20468;-76
2021/01/15 06:38:15;;;;;;;39.03;20.30;;;13.30;2201.60;;;;;;4974411;28;20027;-76
2021/01/15 06:40:43;;;;;;;49.67;27.40;;;13.30;2201.60;;;;;;4974370;28;20031;-76
2021/01/15 06:43:30;;;;;;;48.97;27.17;;;13.30;2201.60;;;;;;4977187;28;20388;-75
2021/01/15 06:46:01;;;;;;;50.33;27.27;;;13.30;2201.60;;;;;;4977087;28;20026;-76
2021/01/15 06:48:38;;;;;;;40.53;23.30;;;13.30;2201.60;;;;;;4978010;28;20090;-74
2021/01/15 06:51:06;;;;;;;51.60;25.10;;;13.30;2201.60;;;;;;4978213;28;20019;-75
2021/01/15 06:53:43;;;;;;;55.37;34.17;;;13.30;2201.60;;;;;;4976772;28;20448;-75
2021/01/15 06:56:17;;;;;;;137.63;84.07;;;13.30;2201.60;;;;;;4976796;28;20027;-75
2021/01/15 06:58:43;;;;;;;;;;;13.30;2201.60;;;;;;4977076;28;20023;-75
2021/01/15 07:01:22;;;;;;;45.57;22.40;;;13.20;2201.60;;;;;;4977900;28;19906;-76
2021/01/15 07:03:51;;;;;;;42.43;21.80;;;13.30;2201.60;;;;;;4977675;28;20099;-75
2021/01/15 07:06:27;;;;;;;42.43;22.53;;;13.20;2201.60;;;;;;4977440;28;20030;-75
2021/01/15 07:08:54;;;;;;;42.37;21.77;;;13.20;2201.60;;;;;;4977527;28;20027;-74
2021/01/15 07:11:22;;;;;;;37.17;20.03;;;13.20;2201.60;;;;;;4977433;28;20026;-75
2021/01/15 07:14:02;;;;;;;53.50;28.27;;;13.10;2201.60;;;;;;4976232;28;20078;-75
2021/01/15 07:16:36;;;;;;;106.47;51.43;;;13.10;2201.60;;;;;;4977360;28;20023;-76
2021/01/15 07:19:05;;;;;;;87.77;47.17;;;13.00;2201.60;;;;;;4977322;28;20110;-74
2021/01/15 07:21:35;;;;;;;111.07;56.53;;;13.00;2201.60;;;;;;4976187;28;20029;-76
2021/01/15 07:24:05;;;;;;;85.00;43.13;;;12.90;2201.60;;;;;;4981564;28;20050;-76
2021/01/15 07:26:42;;;;;;;82.77;43.20;;;0.00;2201.60;;;;;;4996782;28;20029;-75
2021/01/15 07:29:15;;;;;;;62.80;35.00;;;0.00;2201.60;;;;;;4996760;28;20026;-75
2021/01/15 07:31:45;;;;;;;51.78;31.70;;;0.30;2201.60;;;;;;4996983;28;20018;-76
2021/01/15 07:34:18;;;;;;;54.10;29.37;;;0.40;2201.60;;;;;;4996889;28;20450;-76
2021/01/15 07:36:44;;;;;;;69.53;35.43;;;0.50;2201.60;;;;;;4979335;28;20495;-76
2021/01/15 07:39:15;;;;;;;82.60;43.03;;;0.60;2201.60;;;;;;4996706;28;20029;-75
2021/01/15 07:41:41;;;;;;;151.83;42.63;;;0.70;2201.60;;;;;;4979256;28;20053;-75
2021/01/15 07:44:22;;;;;;;60.63;29.97;;;0.80;2201.60;;;;;;4996557;28;20022;-76
2021/01/15 07:47:11;;;;;;;55.50;25.43;;;0.80;2201.60;;;;;;4996726;28;20081;-76
2021/01/15 07:49:47;;;;;;;47.43;23.27;;;0.90;2201.60;;;;;;4979154;28;20037;-76
2021/01/15 07:52:14;;;;;;;40.47;22.53;;;25.60;2201.60;;;;;;4978829;28;20379;-74
2021/01/15 07:54:57;;;;;;;53.87;25.47;;;25.70;2201.60;;;;;;4996344;28;20015;-74
2021/01/15 07:57:24;;;;;;;53.42;27.02;;;25.80;2201.60;;;;;;4996183;28;20486;-76
2021/01/15 07:59:50;;;;;;;68.33;33.23;;;25.80;2201.60;;;;;;4996089;28;20041;-75
2021/01/15 08:02:17;;;;;;;55.13;28.20;;;25.90;2201.60;;;;;;4978537;28;20030;-75
2021/01/15 08:04:44;;;;;;;74.00;39.97;;;25.90;2201.60;;;;;;4996155;28;20364;-75
2021/01/15 08:07:24;;;;;;;101.50;45.03;;;26.10;2201.60;;;;;;4995923;28;20064;-76
2021/01/15 08:09:50;;;;;;;53.10;26.47;;;26.20;2201.60;;;;;;4995944;28;20040;-75
2021/01/15 08:12:16;;;;;;;63.73;29.23;;;26.30;2201.60;;;;;;4995729;28;20106;-75
2021/01/15 08:14:42;;;;;;;234.30;79.60;;;26.30;2201.60;;;;;;4995984;28;20041;-75
2021/01/15 08:17:11;;;;;;;145.30;54.67;;;26.40;2201.60;;;;;;4979273;28;20113;-77
2021/01/15 08:19:38;;;;;;;196.53;93.13;;;26.40;2201.60;;;;;;4996471;28;20046;-75
2021/01/15 08:22:12;;;;;;;288.37;140.23;;;26.30;2201.60;;;;;;4996363;28;20356;-75
2021/01/15 08:24:48;;;;;;;310.47;94.10;;;26.30;2201.60;;;;;;4978325;28;20399;-75
2021/01/15 08:27:16;;;;;;;88.40;41.60;;;26.30;2201.60;;;;;;4995790;28;20034;-76
2021/01/15 08:29:42;;;;;;;60.50;34.73;;;26.30;2201.60;;;;;;4978792;28;20452;-76
2021/01/15 08:32:08;;;;;;;95.83;49.83;;;26.50;2201.60;;;;;;4995838;28;20057;-77
2021/01/15 08:34:35;;;;;;;57.17;31.40;;;51.20;2227.20;;;;;;4996054;28;20046;-76
2021/01/15 08:37:03;;;;;;;80.60;33.27;;;51.20;2227.20;;;;;;4978504;28;20034;-76
2021/01/15 08:39:42;;;;;;;96.97;34.43;;;51.20;2227.20;;;;;;4978555;28;20072;-76
2021/01/15 08:42:08;;;;;;;83.10;34.37;;;51.20;2227.20;;;;;;4978795;28;20053;-76
2021/01/15 08:44:35;;;;;;;46.87;25.17;;;51.30;2227.20;;;;;;4996074;28;20097;-76
2021/01/15 08:47:22;;;;;;;49.70;28.17;;;51.30;2227.20;;;;;;4997709;28;20441;-76
2021/01/15 08:49:55;;;;;;;59.10;30.80;;;51.40;2227.20;;;;;;5015462;28;20380;-77
2021/01/15 08:52:32;;;;;;;61.60;30.80;;;51.40;2227.20;;;;;;5015363;28;20022;-75
2021/01/15 08:55:02;;;;;;;58.30;31.13;;;51.40;2227.20;;;;;;4998083;28;20030;-77
2021/01/15 08:57:29;;;;;;;67.97;37.23;;;51.40;2227.20;;;;;;5015253;28;20053;-76
2021/01/15 09:00:06;;;;;;;55.27;34.17;;;51.40;2227.20;;;;;;4998036;28;20112;-76
2021/01/15 09:02:39;;;;;;;108.80;71.83;;;51.40;2227.20;;;;;;5015025;28;20033;-76
2021/01/15 09:05:10;;;;;;;144.60;86.00;;;51.40;2227.20;;;;;;5014305;28;20037;-75
2021/01/15 09:07:47;;;;;;;87.77;36.47;;;51.30;2227.20;;;;;;5015071;28;20037;-76
2021/01/15 09:10:15;;;;;;;58.47;30.37;;;51.30;2227.20;;;;;;5014959;28;20030;-75
2021/01/15 09:12:46;;;;;;;143.47;64.10;;;51.40;2227.20;;;;;;5015779;28;20036;-74
2021/01/15 09:15:23;;;;;;;63.80;33.47;;;51.40;2227.20;;;;;;5015557;28;20034;-74
2021/01/15 09:17:49;;;;;;;47.53;25.23;;;51.50;2227.20;;;;;;4997503;28;20034;-76
2021/01/15 09:20:16;;;;;;;137.87;59.00;;;51.50;2201.60;;;;;;4997544;28;20459;-76
2021/01/15 09:22:43;;;;;;;115.23;54.27;;;51.60;2227.20;;;;;;5015005;28;20037;-75
2021/01/15 09:25:13;;;;;;;79.63;39.50;;;51.60;2227.20;;;;;;5015023;28;20053;-76
2021/01/15 09:27:39;;;;;;;53.67;31.57;;;51.60;2227.20;;;;;;5014734;28;20037;-74
2021/01/15 09:30:06;;;;;;;56.87;29.33;;;51.70;2201.60;;;;;;5014555;28;20025;-75
2021/01/15 09:32:32;;;;;;;48.57;28.30;;;51.70;2227.20;;;;;;5015025;28;20495;-73
2021/01/15 09:34:59;;;;;;;34.10;21.53;;;51.70;2227.20;;;;;;5023514;28;20037;-77
2021/01/15 09:37:24;;;;;;;54.10;28.70;;;51.70;2201.60;;;;;;5000034;28;20037;-71
2021/01/15 09:39:50;;;;;;;45.83;23.67;;;51.70;2201.60;;;;;;5004209;28;20006;-74
2021/01/15 09:42:16;;;;;;;43.47;24.50;;;51.60;2201.60;;;;;;5022218;28;20041;-74
2021/01/15 09:44:42;;;;;;;57.13;37.10;;;51.60;2227.20;;;;;;5013889;28;20029;-75
2021/01/15 09:47:08;;;;;;;63.50;38.40;;;51.70;2227.20;;;;;;5017264;28;20058;-74
2021/01/15 09:49:52;;;;;;;146.03;49.73;;;51.70;2227.20;;;;;;5000118;28;20043;-76
2021/01/15 09:52:18;;;;;;;41.63;22.65;;;51.70;2227.20;;;;;;5023877;28;20046;-79
2021/01/15 09:54:44;;;;;;;37.40;21.70;;;51.60;2227.20;;;;;;5001904;28;20034;-77
2021/01/15 09:57:09;;;;;;;29.93;19.47;;;51.60;2227.20;;;;;;5031915;22;20037;-76
2021/01/15 09:59:35;;;;;;;34.93;20.67;;;51.60;2227.20;;;;;;5019547;28;20049;-76
2021/01/15 10:02:01;;;;;;;29.00;17.83;;;51.50;2227.20;;;;;;5008874;28;20010;-79
2021/01/15 10:04:27;;;;;;;27.47;15.97;;;51.40;2227.20;;;;;;5019440;28;20019;-75
2021/01/15 10:06:52;;;;;;;39.60;20.70;;;51.40;2227.20;;;;;;5014880;28;20042;-76
2021/01/15 10:09:18;;;;;;;30.10;18.67;;;51.40;2227.20;;;;;;5035618;28;20121;-79
2021/01/15 10:11:46;;;;;;;36.80;21.60;;;51.40;2227.20;;;;;;5011289;28;20006;-79
2021/01/15 10:14:14;;;;;;;32.30;18.93;;;51.40;2227.20;;;;;;5011121;28;20049;-76
2021/01/15 10:16:50;;;;;;;28.10;17.57;;;51.40;2227.20;;;;;;5019627;28;20010;-76
2021/01/15 10:19:17;;;;;;;35.50;21.77;;;51.30;2227.20;;;;;;5039498;28;20030;-77
2021/01/15 10:21:47;;;;;;;46.40;24.87;;;51.40;2227.20;;;;;;5036153;28;20033;-78
2021/01/15 10:24:14;;;;;;;40.43;22.50;;;51.40;2227.20;;;;;;5000846;28;20574;-80
2021/01/15 10:26:42;;;;;;;46.53;30.37;;;51.40;2227.20;;;;;;5000178;28;20030;-77
2021/01/15 10:29:13;;;;;;;110.60;65.90;;;51.40;2227.20;;;;;;5018135;28;20030;-75
2021/01/15 10:31:52;;;;;;;52.03;23.50;;;51.40;2227.20;;;;;;5017974;28;20077;-76
2021/01/15 10:34:18;;;;;;;29.30;17.03;;;51.50;2227.20;;;;;;5019709;28;20006;-77
2021/01/15 10:36:45;;;;;;;24.57;16.50;;;51.50;2227.20;;;;;;5013753;28;20031;-74
2021/01/15 10:39:15;;;;;;;29.93;17.47;;;51.60;2227.20;;;;;;5013374;28;20062;-75
2021/01/15 10:41:44;;;;;;;37.27;19.83;;;51.60;2227.20;;;;;;5013401;28;20057;-76
2021/01/15 10:44:12;;;;;;;30.17;19.23;;;51.60;2227.20;;;;;;5019490;22;20034;-74
2021/01/15 10:46:39;;;;;;;28.63;17.20;;;51.60;2227.20;;;;;;5043738;28;20026;-75
2021/01/15 10:49:10;;;;;;;31.37;19.40;;;51.60;2227.20;;;;;;5014801;28;20026;-75
2021/01/15 10:51:46;;;;;;;34.13;21.00;;;51.70;2227.20;;;;;;5023044;28;20010;-75
2021/01/15 10:54:13;;;;;;;33.80;20.30;;;51.70;2227.20;;;;;;5029420;22;20034;-75
2021/01/15 10:56:40;;;;;;;31.67;20.20;;;51.80;2227.20;;;;;;5018267;28;20010;-75
2021/01/15 10:59:07;;;;;;;37.97;23.80;;;51.90;2227.20;;;;;;5013826;28;20014;-74
2021/01/15 11:01:34;;;;;;;38.83;23.07;;;52.00;2201.60;;;;;;5040380;28;20018;-76
2021/01/15 11:04:01;;;;;;;52.87;24.20;;;52.00;2201.60;;;;;;4992065;28;20038;-75
2021/01/15 11:06:27;;;;;;;42.23;23.60;;;51.90;2201.60;;;;;;4993224;28;20039;-74
2021/01/15 11:08:52;;;;;;;66.67;44.17;;;52.00;2201.60;;;;;;4994984;28;20034;-74
2021/01/15 11:11:18;;;;;;;55.73;31.53;;;52.00;2201.60;;;;;;4995540;28;20128;-75
2021/01/15 11:13:44;;;;;;;68.07;36.17;;;52.00;2201.60;;;;;;4994710;28;20475;-75
2021/01/15 11:16:14;;;;;;;64.10;24.53;;;52.00;2201.60;;;;;;4993909;28;20049;-75
2021/01/15 11:18:41;;;;;;;41.33;22.17;;;52.00;2201.60;;;;;;4995684;28;20058;-75
2021/01/15 11:21:08;;;;;;;31.83;18.00;;;52.00;2201.60;;;;;;5000592;28;20027;-74
2021/01/15 11:23:36;;;;;;;33.67;19.37;;;52.00;2201.60;;;;;;4994895;28;20037;-76
2021/01/15 11:26:03;;;;;;;40.63;22.50;;;77.30;2201.60;;;;;;5004323;28;20037;-75
2021/01/15 11:28:29;;;;;;;41.87;22.80;;;52.00;2201.60;;;;;;5005571;28;20566;-74
2021/01/15 11:30:57;;;;;;;44.93;23.57;;;52.00;2201.60;;;;;;5008954;28;20035;-75
2021/01/15 11:33:22;;;;;;;32.73;17.73;;;52.00;2201.60;;;;;;5012873;28;20387;-76
2021/01/15 11:35:48;;;;;;;33.40;20.30;;;52.00;2201.60;;;;;;5004656;28;20033;-76
2021/01/15 11:38:14;;;;;;;30.43;19.27;;;51.90;2201.60;;;;;;5304154;22;20058;-76
2021/01/15 11:40:40;;;;;;;32.57;19.30;;;51.90;2201.60;;;;;;5036080;28;20026;-76
2021/01/15 11:43:06;;;;;;;37.50;21.80;;;51.90;2201.60;;;;;;5040110;28;20033;-76
2021/01/15 11:45:32;;;;;;;56.27;33.23;;;51.90;2227.20;;;;;;5040487;28;20010;-75
2021/01/15 11:47:57;;;;;;;44.10;25.07;;;51.90;2201.60;;;;;;5209630;22;20109;-75
2021/01/15 11:50:25;;;;;;;42.00;26.30;;;51.90;2201.60;;;;;;4992411;28;20022;-75
2021/01/15 11:52:55;;;;;;;100.13;66.13;;;51.90;2201.60;;;;;;5014206;28;20072;-76
2021/01/15 11:55:26;;;;;;;138.53;92.63;;;51.90;2201.60;;;;;;4997759;28;20022;-75
2021/01/15 11:57:52;;;;;;;78.00;41.10;;;51.90;2201.60;;;;;;5016831;28;20025;-75
2021/01/15 12:00:20;;;;;;;91.27;33.03;;;52.00;2201.60;;;;;;4995871;28;20050;-76
2021/01/15 12:02:48;;;;;;;55.50;31.30;;;52.00;2201.60;;;;;;5011676;28;20069;-76
2021/01/15 12:05:14;;;;;;;28.10;18.67;;;52.10;2201.60;;;;;;5004809;28;20038;-75
2021/01/15 12:07:41;;;;;;;38.00;20.10;;;52.10;2176.00;;;;;;4983202;28;20034;-75
2021/01/15 12:10:09;;;;;;;40.63;19.90;;;76.80;2176.00;;;;;;4981791;28;20109;-76
2021/01/15 12:13:00;;;;;;;32.07;18.97;;;76.90;2176.00;;;;;;4982448;28;20566;-75
2021/01/15 12:15:35;;;;;;;28.17;18.13;;;76.90;2176.00;;;;;;5009297;28;20545;-75
2021/01/15 12:18:06;;;;;;;25.53;17.33;;;77.00;2150.40;;;;;;5010588;28;20026;-77
2021/01/15 12:20:36;;;;;;;33.50;19.30;;;77.00;2150.40;;;;;;5009344;22;20050;-75
2021/01/15 12:23:05;;;;;;;31.50;19.00;;;77.00;2176.00;;;;;;4989731;28;20041;-76
2021/01/15 12:25:31;;;;;;;35.60;23.30;;;77.00;2176.00;;;;;;4985931;28;20165;-75